Virtual LH

Virtual LH. There's no better way to fly
Since 2013.



 METAR AND TAF INFORMATION
METAR FOR EDDP
ADDS - METARS form results

(1535 UTC 21 July 2018)
Data provider http://aviationweather.gov/adds/metars/
 
METAR text: EDDP 211520Z 25016KT CAVOK 25/13 Q1011 NOSIG
Conditions at: EDDP (LEIPZIG/SCHKEUDI, DE) observed 1520 UTC 21 July 2018
Temperature: 25.0°C (77°F)
Dewpoint: 13.0°C (55°F) [RH = 47%]
Pressure (altimeter): 29.85 inches Hg (1011.0 mb)
Winds: from the WSW (250 degrees) at 18 MPH (16 knots; 8.3 m/s)
Visibility: 6 or more miles (10+ km)
Ceiling: ceiling and visibility are OK
Clouds: unknown
Weather: no significant weather observed at this time

METAR text: EDDP 211450Z 24016KT CAVOK 25/13 Q1011 NOSIG
Conditions at: EDDP (LEIPZIG/SCHKEUDI, DE) observed 1450 UTC 21 July 2018
Temperature: 25.0°C (77°F)
Dewpoint: 13.0°C (55°F) [RH = 47%]
Pressure (altimeter): 29.85 inches Hg (1011.0 mb)
Winds: from the WSW (240 degrees) at 18 MPH (16 knots; 8.3 m/s)
Visibility: 6 or more miles (10+ km)
Ceiling: ceiling and visibility are OK
Clouds: unknown
Weather: no significant weather observed at this time

Forecast for: EDDP (LEIPZIG/SCHKEUDI, DE)
Text: TAF EDDP 211100Z 2112/2212 07010KT CAVOK
Forecast period: 1200 to 1500 UTC 21 July 2018
Forecast type: FROM: standard forecast or significant change
Winds: from the ENE (70 degrees) at 12 MPH (10 knots; 5.2 m/s)
Visibility: 6 or more miles (10+ km)
Clouds: not forecast
Weather: NSW  (no significant weather)
Text: BECMG 2115/2118 07005KT
Forecast period: 1500 UTC 21 July 2018 to 1200 UTC 22 July 2018
Forecast type: BECOMING: Conditions expected to become as follows by 1800 UTC 21 July 2018
Winds: from the ENE (70 degrees) at 6 MPH (5 knots; 2.6 m/s)
Visibility: 6 or more miles (10+ km)
Weather: NSW  (no significant weather)

 AIRPORT MAP

 RUNWAY INFORMATION
Runway 08L Runway length 11811 ft Runway width 148 ft
Runway elevation 418 ft Runway displaced threshold 0 ft Runway heading 86
Runway 26R Runway length 11811 ft Runway width 148 ft
Runway elevation 448 ft Runway displaced threshold 0 ft Runway heading 266
Runway 08R Runway length 11811 ft Runway width 198 ft
Runway elevation 0 ft Runway displaced threshold 0 ft Runway heading 86
Runway 26L Runway length 11811 ft Runway width 198 ft
Runway elevation 0 ft Runway displaced threshold 0 ft Runway heading 266

 AIRPORT FREQUENCIES
Type APP Name MUNCHEN RA Frequency 124.175 MHZ
Type ATIS Name ATIS Frequency 123.95 MHZ
Type GND Name GND Frequency 121.8 MHZ
Type INFO Name MUNCHEN IN Frequency 125.8 MHZ
Type TWR Name TWR Frequency 121.1 MHZ

 AIRPORT NEAR NAVIGATION AIDS
Type DME Name Leipzig South Frequency 112150 KHZ
Type VOR-DME Name Leipzig Frequency 115850 KHZ
Type DME Name Leipzig North Frequency 113500 KHZ
Type NDB Name Leipzig Frequency 357 KHZ
Type NDB Name Leipzig Frequency 434 KHZ
Type NDB Name Leipzig Frequency 340 KHZ